MPTO/PTY METAR and TAF weather

Enter ICAO airport designator
Station Type Date Time Source
MPTO METAR 2019/08/23 17:00 UTC NOAA

MPTO 231700Z 07008KT 9999 SCT020TCU 32/24 Q1011 NOSIG


Station Type Date Time Source
MPTO Decoded METAR 2019/08/23 17:00 UTC NOAA

Station name not available
Aug 23, 2019 - 01:00 PM EDT / 2019.08.23 1700 UTC
Wind: from the ENE (070 degrees) at 9 MPH (8 KT):0
Visibility: greater than 7 mile(s):0
Sky conditions: partly cloudy
Weather: Towering cumulus clouds observed
Temperature: 89 F (32 C)
Heat index: 98.4 F (36.9 C):1
Dew Point: 75 F (24 C)
Relative Humidity: 62%
Pressure (altimeter): 29.85 in. Hg (1011 hPa)
ob: MPTO 231700Z 07008KT 9999 SCT020TCU 32/24 Q1011 NOSIG
cycle: 17

Station Type Date Time Source
MPTO TAF 2019/08/23 18:06 UTC NOAA

TAF MPTO 231700Z 2318/2424 05006KT 9999 SCT018 PROB30
TEMPO 2320/2322 19007KT 6000 SHRA SCT016CB SCT090
BECMG 2405/2409 00000KT
TEMPO 2417/2419 18008KT 6000 TSRA SCT015CB BKN090

Example: see airport list